Time;durP1;ratioP1;P1;durP2;ratioP2;P2;SDS_P1;SDS_P2;PMS_P1;PMS_P2;Temp;Humidity;BMP_temperature;BMP_pressure;BME280_temperature;BME280_humidity;BME280_pressure;Samples;Min_cycle;Max_cycle;Signal;HPM_P1;HPM_P2
2021/09/21 00:00:58;;;;;;;1.30;1.20;;;20.80;54.90;;;;;;5048183;28;20560;-57
2021/09/21 00:03:24;;;;;;;1.20;1.10;;;20.80;54.90;;;;;;5049817;28;20090;-58
2021/09/21 00:05:49;;;;;;;1.38;1.20;;;20.80;54.90;;;;;;5059846;28;20033;-55
2021/09/21 00:08:15;;;;;;;1.60;1.17;;;20.80;54.90;;;;;;5035642;28;20033;-56
2021/09/21 00:10:41;;;;;;;1.40;1.30;;;20.80;54.90;;;;;;5051687;28;20052;-56
2021/09/21 00:13:06;;;;;;;2.10;1.30;;;20.80;54.90;;;;;;5027825;28;20033;-54
2021/09/21 00:15:32;;;;;;;1.30;1.20;;;20.80;54.90;;;;;;5054044;28;20033;-56
2021/09/21 00:17:57;;;;;;;1.33;1.23;;;20.80;54.90;;;;;;5046138;28;20056;-53
2021/09/21 00:20:23;;;;;;;1.45;1.20;;;20.80;54.90;;;;;;5047824;28;20658;-56
2021/09/21 00:22:49;;;;;;;1.73;1.20;;;20.80;54.90;;;;;;5031734;28;20045;-54
2021/09/21 00:25:15;;;;;;;1.63;1.20;;;20.80;54.90;;;;;;5051670;28;20057;-56
2021/09/21 00:27:41;;;;;;;1.35;1.13;;;20.80;54.90;;;;;;5035431;28;20399;-57
2021/09/21 00:30:08;;;;;;;1.67;1.23;;;20.70;54.90;;;;;;5048619;28;20045;-56
2021/09/21 00:32:34;;;;;;;1.42;1.20;;;20.70;54.90;;;;;;5050392;28;20045;-55
2021/09/21 00:34:59;;;;;;;1.25;1.15;;;20.70;54.80;;;;;;5050981;28;20056;-56
2021/09/21 00:37:25;;;;;;;1.30;1.20;;;20.70;54.90;;;;;;5054086;28;20519;-55
2021/09/21 00:39:51;;;;;;;1.20;1.10;;;20.70;54.90;;;;;;5057539;28;20486;-55
2021/09/21 00:42:24;;;;;;;1.13;0.90;;;20.70;54.90;;;;;;5050455;28;20074;-55
2021/09/21 00:45:03;;;;;;;1.20;1.10;;;20.70;54.90;;;;;;5050978;28;20356;-55
2021/09/21 00:47:29;;;;;;;1.70;1.10;;;20.70;54.90;;;;;;5052750;28;20041;-56
2021/09/21 00:49:55;;;;;;;1.65;1.30;;;20.70;54.80;;;;;;5051101;28;20032;-57
2021/09/21 00:52:21;;;;;;;1.35;1.10;;;20.70;54.80;;;;;;5047806;28;20098;-57
2021/09/21 00:54:47;;;;;;;1.23;1.13;;;20.70;54.90;;;;;;5061541;28;20107;-56
2021/09/21 00:57:13;;;;;;;1.30;1.10;;;20.70;54.90;;;;;;5051029;28;20398;-54
2021/09/21 00:59:39;;;;;;;1.30;1.20;;;20.70;54.90;;;;;;5051006;28;20037;-55
2021/09/21 01:02:05;;;;;;;1.02;0.93;;;20.70;54.90;;;;;;5037093;28;20112;-55
2021/09/21 01:04:31;;;;;;;1.20;1.10;;;20.70;54.80;;;;;;5050035;28;20166;-56
2021/09/21 01:06:57;;;;;;;1.40;1.30;;;20.70;54.90;;;;;;5057976;28;20034;-54
2021/09/21 01:09:24;;;;;;;1.50;1.20;;;20.70;54.80;;;;;;5052919;28;20063;-53
2021/09/21 01:11:55;;;;;;;1.55;1.40;;;20.70;54.80;;;;;;5050724;28;20037;-53
2021/09/21 01:14:21;;;;;;;1.15;1.02;;;20.70;54.80;;;;;;5058734;28;20044;-55
2021/09/21 01:16:48;;;;;;;1.25;1.15;;;20.70;54.80;;;;;;5058628;28;20396;-54
2021/09/21 01:19:15;;;;;;;1.45;1.10;;;20.70;54.80;;;;;;5048328;28;20040;-55
2021/09/21 01:21:42;;;;;;;1.88;1.10;;;20.60;54.70;;;;;;5049485;28;20088;-55
2021/09/21 01:24:10;;;;;;;1.58;1.25;;;20.60;54.70;;;;;;5035353;28;20060;-52
2021/09/21 01:26:36;;;;;;;1.23;1.08;;;20.60;54.70;;;;;;5053735;28;20134;-53
2021/09/21 01:29:03;;;;;;;1.63;1.50;;;20.60;54.70;;;;;;5049172;28;20048;-56
2021/09/21 01:31:29;;;;;;;1.25;1.10;;;20.60;54.70;;;;;;5028563;28;20562;-55
2021/09/21 01:33:55;;;;;;;2.72;1.20;;;20.60;54.70;;;;;;5049735;28;20041;-54
2021/09/21 01:36:22;;;;;;;2.10;1.00;;;20.60;54.70;;;;;;5055925;28;20051;-52
2021/09/21 01:38:49;;;;;;;1.25;1.17;;;20.60;54.70;;;;;;5052573;28;20417;-56
2021/09/21 01:41:15;;;;;;;1.30;1.20;;;20.60;54.70;;;;;;5053378;28;20029;-55
2021/09/21 01:43:43;;;;;;;1.30;1.20;;;20.60;54.70;;;;;;5051844;28;20029;-56
2021/09/21 01:46:09;;;;;;;2.13;1.67;;;20.60;54.70;;;;;;5051459;28;20450;-55
2021/09/21 01:48:35;;;;;;;1.25;1.10;;;20.60;54.70;;;;;;5052137;28;20029;-55
2021/09/21 01:51:07;;;;;;;1.42;1.33;;;20.60;54.70;;;;;;5052402;28;20037;-54
2021/09/21 01:58:50;;;;;;;1.27;1.17;;;20.50;54.70;;;;;;5050245;28;20110;-55
2021/09/21 02:01:22;;;;;;;1.45;1.05;;;20.50;54.70;;;;;;5034710;28;20029;-56
2021/09/21 02:03:49;;;;;;;1.20;1.10;;;20.50;54.70;;;;;;5051964;28;20034;-55
2021/09/21 02:06:16;;;;;;;1.30;1.20;;;20.50;54.80;;;;;;5058894;28;20254;-55
2021/09/21 02:08:41;;;;;;;1.27;1.17;;;20.50;54.70;;;;;;5048548;28;20033;-54
2021/09/21 02:11:08;;;;;;;1.15;1.05;;;20.50;54.70;;;;;;5053369;28;20545;-56
2021/09/21 02:13:34;;;;;;;1.20;1.10;;;20.50;54.70;;;;;;5052573;28;20377;-56
2021/09/21 02:16:00;;;;;;;1.20;1.05;;;20.50;54.70;;;;;;5059952;28;20396;-54
2021/09/21 02:18:26;;;;;;;1.52;1.20;;;20.50;54.80;;;;;;5060985;28;20048;-55
2021/09/21 02:20:53;;;;;;;1.10;1.05;;;20.50;54.70;;;;;;5049386;28;20077;-56
2021/09/21 02:23:19;;;;;;;1.45;1.10;;;20.50;54.70;;;;;;5051008;28;20091;-54
2021/09/21 02:25:44;;;;;;;1.25;1.15;;;20.50;54.70;;;;;;5052955;28;20033;-55
2021/09/21 02:28:10;;;;;;;1.50;1.40;;;20.50;54.70;;;;;;5054376;28;20442;-55
2021/09/21 02:30:36;;;;;;;2.13;1.23;;;20.50;54.70;;;;;;5029986;28;20117;-54
2021/09/21 02:33:03;;;;;;;1.27;1.17;;;20.50;54.70;;;;;;5049922;28;20353;-55
2021/09/21 02:35:29;;;;;;;1.13;1.02;;;20.40;54.70;;;;;;5048322;28;20436;-55
2021/09/21 02:37:54;;;;;;;1.25;1.15;;;20.40;54.70;;;;;;5056155;28;20045;-55
2021/09/21 02:40:20;;;;;;;1.70;1.10;;;20.40;54.70;;;;;;5052161;28;20044;-54
2021/09/21 02:42:46;;;;;;;1.40;1.30;;;20.40;54.70;;;;;;5049513;28;20037;-55
2021/09/21 02:45:12;;;;;;;1.30;1.20;;;20.40;54.70;;;;;;5051093;28;20504;-55
2021/09/21 02:47:38;;;;;;;1.55;1.20;;;20.40;54.70;;;;;;5048887;28;20399;-54
2021/09/21 02:50:06;;;;;;;1.23;1.13;;;20.40;54.70;;;;;;5050350;28;20037;-56
2021/09/21 02:52:32;;;;;;;1.17;1.08;;;20.50;54.80;;;;;;5047462;28;20041;-56
2021/09/21 02:54:58;;;;;;;1.70;1.40;;;20.40;54.70;;;;;;5049817;28;20049;-56
2021/09/21 02:57:23;;;;;;;1.02;0.98;;;20.40;54.70;;;;;;5028440;28;20041;-56
2021/09/21 02:59:49;;;;;;;1.30;1.20;;;20.40;54.70;;;;;;5049333;28;20068;-54
2021/09/21 03:02:15;;;;;;;1.23;1.13;;;20.40;54.80;;;;;;5054171;28;20086;-56
2021/09/21 03:04:50;;;;;;;1.33;1.20;;;20.40;54.70;;;;;;5059438;28;20025;-56
2021/09/21 03:07:18;;;;;;;1.25;1.10;;;20.40;54.80;;;;;;5047980;28;20044;-55
2021/09/21 03:17:26;;;;;;;1.13;1.02;;;20.40;54.70;;;;;;5051354;28;20134;-55
2021/09/21 03:19:53;;;;;;;1.20;1.10;;;20.30;54.70;;;;;;5021606;28;20124;-55
2021/09/21 03:22:19;;;;;;;1.00;0.85;;;20.30;54.70;;;;;;5046295;28;20036;-55
2021/09/21 03:24:45;;;;;;;1.30;1.20;;;20.30;54.70;;;;;;5053512;28;20041;-55
2021/09/21 03:27:10;;;;;;;1.17;1.05;;;20.30;54.70;;;;;;5051482;28;20106;-56
2021/09/21 03:29:36;;;;;;;1.52;1.42;;;20.30;55.40;;;;;;5052033;28;20559;-55
2021/09/21 03:32:02;;;;;;;1.42;1.20;;;20.30;55.30;;;;;;5046299;28;20053;-55
2021/09/21 03:34:28;;;;;;;1.33;1.10;;;20.30;54.80;;;;;;5048674;28;20094;-57
2021/09/21 03:36:54;;;;;;;0.93;0.93;;;20.30;54.70;;;;;;5050478;28;20107;-51
2021/09/21 03:39:20;;;;;;;1.25;1.10;;;20.30;54.70;;;;;;5051927;28;20040;-52
2021/09/21 03:41:46;;;;;;;0.90;0.90;;;20.30;54.70;;;;;;5051906;28;20041;-53
2021/09/21 03:44:11;;;;;;;1.15;1.05;;;20.30;54.70;;;;;;5050279;28;20368;-55
2021/09/21 03:46:37;;;;;;;1.00;1.00;;;20.30;54.80;;;;;;5048562;28;20044;-54
2021/09/21 03:49:03;;;;;;;1.40;1.30;;;20.30;54.70;;;;;;5027124;28;20059;-56
2021/09/21 03:51:29;;;;;;;1.20;1.10;;;20.30;54.70;;;;;;5048266;28;20037;-56
2021/09/21 03:53:54;;;;;;;1.40;1.30;;;20.30;54.70;;;;;;5052732;28;20047;-54
2021/09/21 03:56:20;;;;;;;1.33;1.23;;;20.30;54.70;;;;;;5052965;28;20073;-56
2021/09/21 03:58:46;;;;;;;1.42;1.30;;;20.20;54.70;;;;;;5048812;28;20088;-55
2021/09/21 04:01:11;;;;;;;1.13;1.08;;;20.20;54.70;;;;;;5050421;28;20558;-55
2021/09/21 04:03:37;;;;;;;1.15;1.10;;;20.20;54.70;;;;;;5048774;28;20696;-56
2021/09/21 04:06:03;;;;;;;1.00;1.00;;;20.20;54.70;;;;;;5060958;28;20094;-55
2021/09/21 04:08:28;;;;;;;1.20;1.10;;;20.20;54.70;;;;;;5054643;28;20056;-56
2021/09/21 04:10:54;;;;;;;1.13;1.05;;;20.20;54.70;;;;;;5035791;28;20086;-55
2021/09/21 04:13:20;;;;;;;1.15;1.08;;;20.20;54.70;;;;;;5054569;28;20782;-56
2021/09/21 04:15:45;;;;;;;1.02;1.00;;;20.20;54.70;;;;;;5034763;28;20099;-55
2021/09/21 04:18:11;;;;;;;1.00;1.00;;;20.20;54.70;;;;;;5058636;28;20087;-55
2021/09/21 04:20:36;;;;;;;1.10;1.00;;;20.20;54.70;;;;;;5051681;28;20033;-55
2021/09/21 04:23:02;;;;;;;1.10;1.10;;;20.20;54.70;;;;;;5031818;28;20091;-56
2021/09/21 04:25:30;;;;;;;1.30;1.10;;;20.20;54.80;;;;;;5046800;28;20033;-56
2021/09/21 04:27:57;;;;;;;1.20;1.10;;;20.20;54.80;;;;;;5057509;28;20099;-55
2021/09/21 04:30:23;;;;;;;1.20;1.10;;;20.20;54.70;;;;;;5031640;28;20041;-56
2021/09/21 04:32:49;;;;;;;1.33;1.13;;;20.20;54.80;;;;;;5045153;28;20146;-53
2021/09/21 04:35:16;;;;;;;1.20;1.10;;;20.20;54.80;;;;;;5049222;28;20037;-54
2021/09/21 04:37:42;;;;;;;1.45;1.35;;;20.10;54.70;;;;;;5057111;28;20036;-56
2021/09/21 04:40:09;;;;;;;1.20;1.10;;;20.10;54.70;;;;;;5060335;28;20465;-55
2021/09/21 04:42:35;;;;;;;1.25;1.15;;;20.10;54.80;;;;;;5050548;28;20055;-55
2021/09/21 04:45:01;;;;;;;1.20;1.10;;;20.20;54.80;;;;;;5037294;28;20116;-56
2021/09/21 04:47:27;;;;;;;1.20;1.10;;;20.10;54.70;;;;;;5052023;28;20453;-55
2021/09/21 04:49:52;;;;;;;1.10;1.00;;;20.10;54.80;;;;;;5056482;28;20068;-56
2021/09/21 04:52:18;;;;;;;1.30;1.20;;;20.20;54.80;;;;;;5049452;28;20128;-55
2021/09/21 04:54:44;;;;;;;1.23;1.13;;;20.10;54.70;;;;;;5057900;28;20128;-55
2021/09/21 04:57:10;;;;;;;1.20;1.10;;;20.10;54.80;;;;;;5050722;28;20040;-56
2021/09/21 04:59:36;;;;;;;1.38;1.23;;;20.10;54.80;;;;;;5050814;28;20036;-56
2021/09/21 05:02:01;;;;;;;1.15;1.10;;;20.10;54.80;;;;;;5054527;28;20037;-54
2021/09/21 05:04:27;;;;;;;1.35;1.25;;;20.10;54.80;;;;;;5062266;28;20032;-55
2021/09/21 05:06:53;;;;;;;1.20;1.10;;;20.10;55.40;;;;;;5060846;28;20128;-54
2021/09/21 05:09:18;;;;;;;1.15;1.08;;;20.10;54.80;;;;;;5040110;28;20122;-56
2021/09/21 05:11:45;;;;;;;1.40;1.30;;;20.10;54.80;;;;;;5046488;28;20059;-54
2021/09/21 05:14:12;;;;;;;1.13;1.02;;;20.10;54.80;;;;;;5058344;28;20225;-51
2021/09/21 05:16:38;;;;;;;1.85;1.10;;;20.10;54.90;;;;;;5040556;28;20452;-54
2021/09/21 05:19:04;;;;;;;1.40;1.30;;;20.10;54.80;;;;;;5059947;28;20735;-51
2021/09/21 05:21:30;;;;;;;1.25;1.15;;;20.10;55.50;;;;;;5046459;28;20021;-56
2021/09/21 05:23:55;;;;;;;1.30;1.20;;;20.10;54.90;;;;;;5051254;28;20037;-54
2021/09/21 05:26:21;;;;;;;1.00;1.00;;;20.10;54.90;;;;;;5058184;28;20033;-55
2021/09/21 05:28:47;;;;;;;1.65;1.40;;;20.10;54.90;;;;;;5054786;28;20095;-53
2021/09/21 05:31:12;;;;;;;1.30;1.20;;;20.10;54.90;;;;;;5048283;28;20044;-53
2021/09/21 05:33:38;;;;;;;1.40;1.20;;;20.00;54.90;;;;;;5050608;28;20040;-53
2021/09/21 05:36:04;;;;;;;1.17;1.08;;;20.10;54.90;;;;;;5054417;28;20037;-56
2021/09/21 05:38:30;;;;;;;1.27;1.17;;;20.00;54.90;;;;;;5051129;28;20029;-53
2021/09/21 05:40:56;;;;;;;1.20;1.10;;;20.00;54.90;;;;;;5051950;28;20083;-53
2021/09/21 05:43:21;;;;;;;1.10;1.00;;;20.10;55.00;;;;;;5033989;28;20048;-57
2021/09/21 05:45:47;;;;;;;1.30;1.10;;;20.00;54.90;;;;;;5032931;28;20061;-55
2021/09/21 05:48:13;;;;;;;1.02;1.02;;;20.00;55.00;;;;;;5051247;28;20095;-57
2021/09/21 05:50:39;;;;;;;1.40;1.30;;;20.00;55.00;;;;;;5051917;28;20025;-56
2021/09/21 05:53:04;;;;;;;1.30;1.10;;;20.00;55.00;;;;;;5049050;28;20334;-58
2021/09/21 05:55:30;;;;;;;1.13;1.10;;;20.00;55.00;;;;;;5034545;28;20021;-58
2021/09/21 05:57:56;;;;;;;1.30;1.20;;;20.10;55.10;;;;;;5054839;28;20076;-57
2021/09/21 06:00:22;;;;;;;1.65;1.20;;;20.00;55.10;;;;;;5053341;28;20060;-58
2021/09/21 06:02:47;;;;;;;1.50;1.40;;;20.00;55.10;;;;;;5057189;28;20075;-55
2021/09/21 06:05:13;;;;;;;1.38;1.27;;;20.00;55.20;;;;;;5051870;28;20492;-58
2021/09/21 06:07:48;;;;;;;1.45;1.35;;;20.00;55.20;;;;;;5014904;28;20049;-57
2021/09/21 06:10:15;;;;;;;1.13;1.10;;;20.00;55.20;;;;;;5029582;28;20037;-58
2021/09/21 06:12:41;;;;;;;1.15;1.05;;;20.00;55.20;;;;;;5052848;28;20032;-56
2021/09/21 06:15:07;;;;;;;1.30;1.20;;;20.00;55.30;;;;;;5054687;28;20033;-57
2021/09/21 06:17:32;;;;;;;1.00;1.00;;;20.00;55.30;;;;;;5058457;28;20036;-59
2021/09/21 06:19:58;;;;;;;1.23;1.13;;;20.00;55.30;;;;;;5063637;28;20089;-55
2021/09/21 06:22:24;;;;;;;1.10;1.00;;;20.00;55.40;;;;;;5014657;28;20048;-56
2021/09/21 06:24:49;;;;;;;0.95;0.95;;;20.00;55.40;;;;;;5037533;28;20041;-57
2021/09/21 06:27:15;;;;;;;1.23;1.13;;;20.00;55.40;;;;;;5048558;28;20052;-57
2021/09/21 06:29:40;;;;;;;1.27;1.17;;;20.00;55.40;;;;;;5055833;28;20056;-57
2021/09/21 06:32:06;;;;;;;1.30;1.20;;;20.00;55.40;;;;;;5048897;28;20040;-57
2021/09/21 06:34:32;;;;;;;2.03;1.27;;;20.00;55.50;;;;;;5052289;28;20074;-56
2021/09/21 06:36:58;;;;;;;1.50;1.40;;;20.00;55.50;;;;;;5055204;28;20509;-55
2021/09/21 06:39:24;;;;;;;1.38;1.27;;;20.00;55.50;;;;;;5053142;28;20029;-56
2021/09/21 06:41:50;;;;;;;1.70;1.60;;;20.00;55.50;;;;;;5048039;28;20124;-56
2021/09/21 06:44:15;;;;;;;2.03;1.60;;;20.00;55.60;;;;;;5051419;28;20515;-57
2021/09/21 06:46:41;;;;;;;2.30;1.50;;;20.00;55.60;;;;;;5054039;28;20067;-56
2021/09/21 06:49:07;;;;;;;1.90;1.70;;;20.00;55.60;;;;;;5032517;28;20158;-58
2021/09/21 06:51:33;;;;;;;1.90;1.70;;;20.00;55.60;;;;;;5035129;28;20040;-56
2021/09/21 06:53:58;;;;;;;2.40;1.50;;;20.00;55.60;;;;;;5053072;28;20051;-54
2021/09/21 06:56:28;;;;;;;1.67;1.50;;;20.10;55.70;;;;;;5046373;28;20053;-57
2021/09/21 06:58:57;;;;;;;2.38;1.60;;;20.00;55.60;;;;;;5033089;28;20361;-56
2021/09/21 07:01:25;;;;;;;1.77;1.48;;;20.00;55.60;;;;;;5050799;28;20114;-57
2021/09/21 07:03:51;;;;;;;1.50;1.40;;;20.10;55.70;;;;;;5055021;28;20391;-58
2021/09/21 07:06:16;;;;;;;1.60;1.50;;;20.10;55.60;;;;;;5057681;28;20121;-56
2021/09/21 07:08:42;;;;;;;1.70;1.50;;;20.10;55.60;;;;;;5049982;28;20040;-54
2021/09/21 07:11:08;;;;;;;1.58;1.40;;;20.10;55.60;;;;;;5045286;28;20056;-54
2021/09/21 07:13:33;;;;;;;2.80;1.70;;;20.10;55.60;;;;;;5045335;28;20041;-55
2021/09/21 07:15:59;;;;;;;1.65;1.55;;;20.10;55.60;;;;;;5048533;28;20032;-56
2021/09/21 07:18:25;;;;;;;1.73;1.50;;;20.10;55.60;;;;;;5044905;28;20045;-56
2021/09/21 07:20:50;;;;;;;2.60;1.50;;;20.10;55.60;;;;;;5046882;28;20115;-54
2021/09/21 07:23:16;;;;;;;1.70;1.60;;;20.10;55.60;;;;;;5029258;28;20029;-56
2021/09/21 07:25:42;;;;;;;1.67;1.58;;;20.10;56.20;;;;;;5050949;28;20120;-54
2021/09/21 07:28:07;;;;;;;1.42;1.33;;;20.10;55.60;;;;;;5052958;28;20033;-53
2021/09/21 07:30:34;;;;;;;1.88;1.48;;;20.10;55.60;;;;;;5050708;28;20037;-52
2021/09/21 07:33:01;;;;;;;1.70;1.58;;;20.10;55.60;;;;;;5047884;28;20033;-54
2021/09/21 07:35:26;;;;;;;2.00;1.60;;;20.10;55.60;;;;;;5048128;28;20423;-55
2021/09/21 07:37:52;;;;;;;1.65;1.35;;;20.10;55.60;;;;;;5050551;28;20041;-55
2021/09/21 07:40:20;;;;;;;1.42;1.33;;;20.10;55.60;;;;;;5044986;28;20040;-56
2021/09/21 07:42:48;;;;;;;1.70;1.40;;;20.10;55.60;;;;;;5047871;28;20511;-56
2021/09/21 07:45:14;;;;;;;1.75;1.52;;;20.10;55.60;;;;;;5045751;28;20025;-55
2021/09/21 07:47:40;;;;;;;1.65;1.55;;;20.10;55.60;;;;;;5047014;28;20032;-56
2021/09/21 07:50:07;;;;;;;1.67;1.58;;;20.10;55.60;;;;;;5045415;28;20041;-55
2021/09/21 07:52:33;;;;;;;3.28;1.45;;;20.20;55.70;;;;;;5045464;28;20392;-56
2021/09/21 07:54:59;;;;;;;1.33;1.23;;;20.20;55.70;;;;;;5047709;28;20049;-52
2021/09/21 07:57:26;;;;;;;2.00;1.55;;;20.20;55.70;;;;;;5047918;28;20051;-57
2021/09/21 07:59:51;;;;;;;1.50;1.40;;;20.20;55.70;;;;;;5045295;28;20471;-55
2021/09/21 08:02:17;;;;;;;1.40;1.23;;;20.20;55.70;;;;;;5045944;28;20036;-56
2021/09/21 08:04:43;;;;;;;1.58;1.48;;;20.20;55.70;;;;;;5012219;28;20076;-56
2021/09/21 08:07:10;;;;;;;1.45;1.30;;;20.20;55.70;;;;;;5047355;28;20491;-56
2021/09/21 08:09:37;;;;;;;1.83;1.42;;;20.20;55.70;;;;;;5046711;28;20060;-56
2021/09/21 08:12:04;;;;;;;2.17;1.70;;;20.20;55.70;;;;;;5044699;28;20041;-55
2021/09/21 08:14:36;;;;;;;1.80;1.70;;;20.20;55.70;;;;;;5046863;28;20124;-55
2021/09/21 08:17:05;;;;;;;1.98;1.42;;;20.30;55.70;;;;;;5047715;28;20048;-56
2021/09/21 08:19:32;;;;;;;2.15;1.83;;;20.30;55.70;;;;;;5045614;28;20036;-53
2021/09/21 08:21:57;;;;;;;1.70;1.27;;;20.30;55.70;;;;;;5046613;28;20383;-56
2021/09/21 08:24:23;;;;;;;1.83;1.50;;;20.30;55.70;;;;;;5045447;28;20032;-56
2021/09/21 08:26:49;;;;;;;1.38;1.27;;;20.30;55.70;;;;;;5045741;28;20057;-55
2021/09/21 08:29:14;;;;;;;1.27;1.17;;;20.30;55.70;;;;;;5027174;28;20041;-57
2021/09/21 08:31:41;;;;;;;2.10;1.60;;;20.30;55.70;;;;;;5045578;28;20341;-56
2021/09/21 08:34:06;;;;;;;2.05;1.60;;;20.30;55.70;;;;;;5046262;28;20037;-57
2021/09/21 08:36:36;;;;;;;1.33;1.23;;;20.30;55.70;;;;;;5048901;28;20099;-61
2021/09/21 08:39:05;;;;;;;2.97;1.73;;;20.30;55.70;;;;;;5047230;28;20156;-58
2021/09/21 08:41:31;;;;;;;2.42;1.50;;;20.30;55.70;;;;;;5028453;28;20048;-59
2021/09/21 08:43:56;;;;;;;1.85;1.60;;;20.40;55.80;;;;;;5042353;28;20045;-59
2021/09/21 08:46:22;;;;;;;1.45;1.35;;;20.30;55.80;;;;;;5047807;28;20107;-57
2021/09/21 08:48:48;;;;;;;1.50;1.40;;;20.30;55.90;;;;;;5049368;28;20052;-58
2021/09/21 08:51:14;;;;;;;1.55;1.13;;;20.40;56.00;;;;;;5032843;28;20128;-56
2021/09/21 08:53:40;;;;;;;1.80;1.40;;;20.40;56.00;;;;;;5048454;28;20390;-55
2021/09/21 08:56:06;;;;;;;2.03;1.05;;;20.40;56.10;;;;;;5047654;28;20091;-58
2021/09/21 08:58:32;;;;;;;1.67;1.50;;;20.40;56.10;;;;;;5052752;28;20126;-58
2021/09/21 09:01:18;;;;;;;1.60;1.30;;;20.40;56.10;;;;;;5048007;28;20093;-58
2021/09/21 09:03:57;;;;;;;1.40;1.30;;;20.40;56.20;;;;;;5053772;28;20448;-59
2021/09/21 09:06:23;;;;;;;1.50;1.40;;;20.40;56.20;;;;;;5045147;28;20032;-59
2021/09/21 09:08:49;;;;;;;1.55;1.45;;;20.40;56.20;;;;;;5047447;28;20745;-60
2021/09/21 09:11:19;;;;;;;1.50;1.40;;;20.40;56.20;;;;;;5047651;28;20033;-60
2021/09/21 09:13:49;;;;;;;1.40;1.23;;;20.50;56.30;;;;;;5032149;28;20021;-60
2021/09/21 09:16:17;;;;;;;1.30;1.17;;;20.50;56.30;;;;;;5044434;28;20029;-60
2021/09/21 09:18:47;;;;;;;1.77;1.50;;;20.50;56.20;;;;;;5044662;28;20040;-58
2021/09/21 09:21:19;;;;;;;2.25;1.38;;;20.50;56.20;;;;;;5047968;28;20521;-62
2021/09/21 09:23:50;;;;;;;1.30;1.20;;;20.50;56.10;;;;;;5048740;28;20041;-61
2021/09/21 09:26:21;;;;;;;1.67;1.57;;;20.50;56.00;;;;;;5050065;28;20352;-59
2021/09/21 09:28:48;;;;;;;1.30;1.20;;;20.50;55.90;;;;;;5049306;28;20033;-58
2021/09/21 09:31:27;;;;;;;1.92;1.38;;;20.60;55.90;;;;;;5048938;28;20087;-59
2021/09/21 09:34:07;;;;;;;1.45;1.25;;;20.60;56.50;;;;;;5050594;28;20071;-61
2021/09/21 09:36:46;;;;;;;1.95;1.30;;;20.60;55.80;;;;;;5046057;28;20140;-60
2021/09/21 09:39:12;;;;;;;1.60;1.50;;;20.60;55.70;;;;;;5041757;28;20040;-60
2021/09/21 09:41:39;;;;;;;1.50;1.40;;;20.60;55.60;;;;;;5052167;28;20033;-60
2021/09/21 09:44:11;;;;;;;1.40;1.30;;;20.60;55.50;;;;;;5029716;28;20132;-59
2021/09/21 09:46:50;;;;;;;2.40;1.33;;;20.70;55.60;;;;;;5049886;28;20067;-60
2021/09/21 09:49:40;;;;;;;1.25;1.15;;;20.70;55.60;;;;;;5048266;28;20045;-59
2021/09/21 09:52:09;;;;;;;1.85;1.50;;;20.70;55.50;;;;;;5046110;28;20043;-59
2021/09/21 09:54:36;;;;;;;2.53;1.35;;;20.70;55.50;;;;;;5053544;28;20490;-59
2021/09/21 09:57:03;;;;;;;1.70;1.25;;;20.70;55.50;;;;;;5049838;28;20044;-58
2021/09/21 09:59:29;;;;;;;1.42;1.33;;;20.70;55.30;;;;;;5047241;28;20079;-58
2021/09/21 10:01:56;;;;;;;1.42;1.33;;;20.70;55.20;;;;;;5052833;28;20037;-60
2021/09/21 10:04:22;;;;;;;1.20;1.10;;;20.70;55.10;;;;;;5049558;28;20065;-60
2021/09/21 10:06:48;;;;;;;1.48;1.38;;;20.80;55.00;;;;;;5029998;28;20045;-61
2021/09/21 10:09:15;;;;;;;1.50;1.40;;;20.80;54.90;;;;;;5051426;28;20829;-62
2021/09/21 10:11:45;;;;;;;1.48;1.38;;;20.80;54.70;;;;;;5051375;28;20044;-62
2021/09/21 10:14:12;;;;;;;1.27;1.17;;;20.80;54.60;;;;;;5055383;28;20036;-59
2021/09/21 10:16:50;;;;;;;1.38;1.27;;;20.80;54.50;;;;;;5050241;28;20412;-60
2021/09/21 10:19:21;;;;;;;2.17;1.50;;;20.80;54.40;;;;;;5054739;28;20104;-61
2021/09/21 10:21:49;;;;;;;1.20;1.10;;;20.80;54.30;;;;;;5049559;28;20364;-62
2021/09/21 10:24:15;;;;;;;1.30;1.20;;;20.90;54.30;;;;;;5046682;28;20587;-61
2021/09/21 10:26:45;;;;;;;2.47;1.23;;;20.80;54.20;;;;;;5034701;28;20446;-61
2021/09/21 10:29:13;;;;;;;1.45;1.35;;;20.90;54.20;;;;;;5045804;28;20037;-61
2021/09/21 10:31:40;;;;;;;1.23;1.15;;;20.90;54.10;;;;;;5049541;28;20144;-61
2021/09/21 10:34:14;;;;;;;1.40;1.30;;;20.90;54.10;;;;;;5050814;28;20530;-61
2021/09/21 10:36:53;;;;;;;1.30;1.20;;;20.90;54.10;;;;;;5041460;28;20132;-61
2021/09/21 10:39:22;;;;;;;1.70;1.40;;;20.90;54.10;;;;;;5045360;28;20488;-62
2021/09/21 10:41:49;;;;;;;1.55;1.17;;;21.00;54.20;;;;;;5053915;28;20110;-62
2021/09/21 10:44:15;;;;;;;1.27;1.17;;;21.00;54.10;;;;;;5046250;28;20033;-62
2021/09/21 10:47:02;;;;;;;3.42;1.35;;;21.00;54.10;;;;;;5039601;28;20044;-60
2021/09/21 10:49:33;;;;;;;1.13;1.10;;;21.00;54.10;;;;;;5052831;28;20029;-62
2021/09/21 10:52:05;;;;;;;2.08;1.02;;;21.00;54.10;;;;;;5043261;28;20033;-61
2021/09/21 10:54:34;;;;;;;;;;;21.00;53.90;;;;;;5050552;28;20033;-61
2021/09/21 10:57:12;;;;;;;1.23;1.13;;;21.00;53.70;;;;;;5046615;28;19909;-59
2021/09/21 10:59:39;;;;;;;1.75;1.25;;;21.00;53.30;;;;;;5041163;28;20045;-59
2021/09/21 11:02:07;;;;;;;1.35;1.25;;;21.10;53.30;;;;;;5056194;28;20064;-60
2021/09/21 11:04:41;;;;;;;1.45;1.35;;;21.10;52.40;;;;;;5063366;28;20475;-59
2021/09/21 11:07:07;;;;;;;2.00;1.63;;;21.10;52.20;;;;;;5059765;28;20383;-59
2021/09/21 11:09:33;;;;;;;1.65;1.27;;;21.10;51.90;;;;;;5050066;28;20029;-59
2021/09/21 11:12:07;;;;;;;1.20;1.02;;;21.10;51.40;;;;;;5048940;28;20049;-60
2021/09/21 11:14:36;;;;;;;1.50;1.40;;;21.10;50.90;;;;;;5046083;28;20040;-60
2021/09/21 11:17:02;;;;;;;1.40;1.30;;;21.10;50.90;;;;;;5045840;28;20041;-59
2021/09/21 11:19:29;;;;;;;1.23;1.13;;;21.10;50.50;;;;;;5045636;28;20033;-59
2021/09/21 11:22:04;;;;;;;1.30;1.20;;;21.10;49.70;;;;;;5047767;28;20372;-59
2021/09/21 11:24:30;;;;;;;1.73;1.40;;;21.10;49.90;;;;;;5046587;28;20124;-58
2021/09/21 11:27:00;;;;;;;1.45;1.35;;;21.10;50.10;;;;;;5045028;28;20132;-57
2021/09/21 11:29:26;;;;;;;1.17;1.08;;;21.10;50.50;;;;;;5047290;28;20376;-56
2021/09/21 11:31:52;;;;;;;1.95;1.40;;;21.10;50.70;;;;;;5049560;28;20045;-58
2021/09/21 11:34:18;;;;;;;1.55;1.30;;;21.10;50.80;;;;;;5047129;28;20037;-58
2021/09/21 11:36:49;;;;;;;1.10;1.00;;;21.10;51.00;;;;;;5050136;28;20057;-59
2021/09/21 11:39:18;;;;;;;1.38;1.27;;;21.10;51.10;;;;;;5046971;28;20041;-59
2021/09/21 11:41:51;;;;;;;1.13;1.02;;;21.10;51.20;;;;;;5047782;28;20056;-58
2021/09/21 11:44:17;;;;;;;1.40;1.15;;;21.10;51.40;;;;;;5027987;28;20036;-59
2021/09/21 11:46:43;;;;;;;1.20;1.10;;;21.10;51.50;;;;;;5046924;28;20403;-59
2021/09/21 11:49:09;;;;;;;2.72;1.20;;;21.10;51.70;;;;;;5047557;28;20055;-58
2021/09/21 11:51:35;;;;;;;1.80;1.58;;;21.10;51.90;;;;;;5043528;28;20041;-58
2021/09/21 11:54:03;;;;;;;1.45;1.35;;;21.10;52.10;;;;;;5050792;28;20044;-59
2021/09/21 11:56:29;;;;;;;2.45;1.67;;;21.10;52.30;;;;;;5045881;28;20198;-58
2021/09/21 11:58:59;;;;;;;2.47;1.60;;;21.10;52.50;;;;;;5050130;28;20036;-58
2021/09/21 12:01:25;;;;;;;1.58;1.35;;;21.10;52.70;;;;;;5045447;28;20520;-59
2021/09/21 12:03:54;;;;;;;1.80;1.50;;;21.10;52.80;;;;;;5046911;28;20033;-57
2021/09/21 12:06:34;;;;;;;2.47;1.65;;;21.20;53.00;;;;;;5028892;28;20391;-59
2021/09/21 12:09:02;;;;;;;1.77;1.30;;;21.20;53.20;;;;;;5047652;28;20131;-59
2021/09/21 12:11:28;;;;;;;1.38;1.27;;;21.20;53.30;;;;;;5046739;28;20048;-56
2021/09/21 12:13:57;;;;;;;1.55;1.45;;;21.20;53.40;;;;;;5046151;28;20057;-58
2021/09/21 12:16:27;;;;;;;1.58;1.48;;;21.20;53.50;;;;;;5045775;28;20040;-58
2021/09/21 12:18:53;;;;;;;1.58;1.38;;;21.20;53.60;;;;;;5054171;28;20045;-59
2021/09/21 12:21:18;;;;;;;1.70;1.40;;;21.20;53.60;;;;;;5021329;28;20059;-58
2021/09/21 12:23:46;;;;;;;1.40;1.30;;;21.30;53.70;;;;;;5047366;28;20068;-57
2021/09/21 12:26:14;;;;;;;1.95;1.40;;;21.30;53.80;;;;;;5058888;28;20040;-58
2021/09/21 12:28:43;;;;;;;1.55;1.40;;;21.30;53.80;;;;;;5057027;28;20033;-58
2021/09/21 12:31:30;;;;;;;1.75;1.48;;;21.30;53.90;;;;;;5040800;28;20116;-58
2021/09/21 12:33:58;;;;;;;1.80;1.35;;;21.30;53.90;;;;;;5032114;28;20021;-57
2021/09/21 12:36:31;;;;;;;1.90;1.27;;;21.30;53.90;;;;;;5064257;28;20488;-58
2021/09/21 12:39:06;;;;;;;1.73;1.08;;;21.30;54.00;;;;;;5054421;28;20448;-58
2021/09/21 12:41:41;;;;;;;1.58;1.20;;;21.30;54.00;;;;;;5058772;28;20025;-59
2021/09/21 12:44:08;;;;;;;2.22;1.58;;;21.30;54.10;;;;;;5035410;28;20311;-58
2021/09/21 12:46:36;;;;;;;1.20;1.10;;;21.40;54.20;;;;;;5056483;28;20032;-58
2021/09/21 12:49:02;;;;;;;1.33;1.20;;;21.40;54.20;;;;;;5036243;28;20061;-58
2021/09/21 12:51:32;;;;;;;1.40;1.30;;;21.40;54.20;;;;;;5057650;28;20033;-58
2021/09/21 12:53:59;;;;;;;2.13;1.50;;;21.40;54.20;;;;;;5016509;28;20034;-58
2021/09/21 12:56:25;;;;;;;1.33;1.17;;;21.40;54.30;;;;;;5048865;28;20052;-57
2021/09/21 12:58:50;;;;;;;1.40;1.30;;;21.40;54.20;;;;;;5044889;28;20036;-59
2021/09/21 13:01:17;;;;;;;1.58;1.48;;;21.40;54.30;;;;;;5049462;28;20025;-57